createdAt,value
2019-03-06T00:01:03.231Z,95.40
2019-03-06T00:03:32.099Z,95.50
2019-03-06T00:06:00.867Z,95.70
2019-03-06T00:08:29.675Z,96.10
2019-03-06T00:10:58.470Z,95.80
2019-03-06T00:13:27.283Z,95.70
2019-03-06T00:15:56.208Z,95.90
2019-03-06T00:18:25.091Z,96.50
2019-03-06T00:20:54.031Z,96.50
2019-03-06T00:23:22.815Z,96.40
2019-03-06T00:25:51.628Z,96.50
2019-03-06T00:28:20.422Z,96.40
2019-03-06T00:30:49.361Z,96.70
2019-03-06T00:33:18.147Z,96.80
2019-03-06T00:35:48.794Z,97.00
2019-03-06T00:38:17.648Z,97.10
2019-03-06T00:41:23.891Z,97.40
2019-03-06T00:43:53.104Z,97.60
2019-03-06T00:46:22.299Z,97.50
2019-03-06T00:48:51.186Z,97.10
2019-03-06T00:51:20.030Z,97.30
2019-03-06T00:53:48.890Z,97.50
2019-03-06T00:56:17.778Z,97.80
2019-03-06T00:58:46.576Z,97.90
2019-03-06T01:01:16.110Z,98.00
2019-03-06T01:03:44.978Z,98.00
2019-03-06T01:06:13.819Z,97.90
2019-03-06T01:08:42.716Z,97.70
2019-03-06T01:11:11.851Z,97.90
2019-03-06T01:13:40.870Z,98.00
2019-03-06T01:16:10.192Z,98.00
2019-03-06T01:18:38.994Z,98.10
2019-03-06T01:21:07.854Z,98.00
2019-03-06T01:23:36.783Z,98.10
2019-03-06T01:26:06.062Z,98.10
2019-03-06T01:28:34.947Z,98.10
2019-03-06T01:31:03.846Z,98.10
2019-03-06T01:33:51.829Z,98.10
2019-03-06T01:36:51.886Z,98.60
2019-03-06T01:39:38.578Z,98.30
2019-03-06T01:42:32.458Z,98.20
2019-03-06T01:45:04.518Z,98.20
2019-03-06T01:47:33.375Z,98.20
2019-03-06T01:50:02.163Z,98.30
2019-03-06T01:52:30.962Z,98.20
2019-03-06T01:55:00.163Z,98.30
2019-03-06T01:57:29.412Z,98.30
2019-03-06T01:59:58.267Z,98.40
2019-03-06T02:02:27.158Z,98.30
2019-03-06T02:04:56.007Z,98.20
2019-03-06T02:07:25.080Z,98.30
2019-03-06T02:09:55.233Z,98.40
2019-03-06T02:12:24.149Z,98.20
2019-03-06T02:14:53.422Z,98.30
2019-03-06T02:17:22.286Z,98.50
2019-03-06T02:19:51.298Z,98.50
2019-03-06T02:22:20.182Z,98.50
2019-03-06T02:24:49.058Z,98.60
2019-03-06T02:27:17.995Z,98.40
2019-03-06T02:29:46.803Z,98.50
2019-03-06T02:32:15.699Z,99.00
2019-03-06T02:34:44.722Z,98.70
2019-03-06T02:37:13.882Z,98.50
2019-03-06T02:39:42.906Z,98.70
2019-03-06T02:42:11.790Z,98.80
2019-03-06T02:44:40.664Z,99.50
2019-03-06T02:47:09.519Z,99.90
2019-03-06T02:49:38.313Z,99.90
2019-03-06T02:52:07.613Z,99.90
2019-03-06T02:54:36.552Z,99.90
2019-03-06T02:57:05.588Z,99.90
2019-03-06T02:59:43.904Z,99.90
2019-03-06T03:02:30.809Z,99.90
2019-03-06T03:05:22.772Z,99.90
2019-03-06T03:07:51.966Z,99.90
2019-03-06T03:10:20.958Z,99.90
2019-03-06T03:12:50.025Z,99.90
2019-03-06T03:15:19.182Z,99.90
2019-03-06T03:17:48.444Z,99.90
2019-03-06T03:20:18.372Z,99.90
2019-03-06T03:22:47.454Z,99.90
2019-03-06T03:25:16.519Z,99.90
2019-03-06T03:27:46.020Z,99.90
2019-03-06T03:30:15.390Z,99.90
2019-03-06T03:32:44.656Z,99.90
2019-03-06T03:35:13.801Z,99.90
2019-03-06T03:37:42.918Z,99.90
2019-03-06T03:40:12.711Z,99.90
2019-03-06T03:42:41.745Z,99.90
2019-03-06T03:45:11.424Z,99.90
2019-03-06T03:47:40.291Z,99.90
2019-03-06T03:50:09.848Z,99.90
2019-03-06T03:52:39.735Z,99.90
2019-03-06T03:55:08.784Z,99.90
2019-03-06T03:57:37.844Z,99.90
2019-03-06T04:00:08.277Z,99.90
2019-03-06T04:02:37.388Z,99.90
2019-03-06T04:05:07.195Z,99.90
2019-03-06T04:07:36.221Z,99.90
2019-03-06T04:10:05.859Z,99.90
2019-03-06T04:12:35.153Z,99.90
2019-03-06T04:15:04.922Z,99.90
2019-03-06T04:17:33.894Z,99.90
2019-03-06T04:20:02.941Z,99.90
2019-03-06T04:22:32.098Z,99.90
2019-03-06T04:25:01.014Z,99.90
2019-03-06T04:27:30.015Z,99.90
2019-03-06T04:29:59.220Z,99.90
2019-03-06T04:32:28.214Z,99.90
2019-03-06T04:34:57.269Z,99.90
2019-03-06T04:37:26.206Z,99.90
2019-03-06T04:39:58.282Z,99.90
2019-03-06T04:42:29.340Z,99.90
2019-03-06T04:44:58.589Z,99.90
2019-03-06T04:47:27.579Z,99.90
2019-03-06T04:49:56.508Z,99.90
2019-03-06T04:52:25.444Z,99.90
2019-03-06T04:54:54.325Z,99.90
2019-03-06T04:57:23.273Z,99.90
2019-03-06T04:59:52.236Z,99.90
2019-03-06T05:02:21.296Z,99.90
2019-03-06T05:04:50.668Z,99.90
2019-03-06T05:07:19.620Z,99.90
2019-03-06T05:09:48.684Z,99.90
2019-03-06T05:12:18.707Z,99.90
2019-03-06T05:14:47.927Z,99.90
2019-03-06T05:17:23.215Z,99.90
2019-03-06T05:19:52.660Z,99.90
2019-03-06T05:22:21.690Z,99.90
2019-03-06T05:24:50.717Z,99.90
2019-03-06T05:27:19.574Z,99.90
2019-03-06T05:29:48.796Z,99.90
2019-03-06T05:32:29.028Z,99.90
2019-03-06T05:34:59.501Z,99.90
2019-03-06T05:38:04.499Z,99.90
2019-03-06T05:40:33.424Z,99.90
2019-03-06T05:43:02.350Z,99.90
2019-03-06T05:45:31.352Z,99.90
2019-03-06T05:48:00.664Z,99.90
2019-03-06T05:50:29.691Z,99.90
2019-03-06T05:52:58.701Z,99.90
2019-03-06T05:55:27.638Z,99.90
2019-03-06T05:57:56.508Z,99.90
2019-03-06T06:00:27.097Z,99.90
2019-03-06T06:02:56.111Z,99.90
2019-03-06T06:05:25.152Z,99.90
2019-03-06T06:07:54.155Z,99.90
2019-03-06T06:10:23.172Z,99.90
2019-03-06T06:12:52.313Z,99.90
2019-03-06T06:15:21.317Z,99.90
2019-03-06T06:17:50.213Z,99.90
2019-03-06T06:20:19.095Z,99.90
2019-03-06T06:22:57.320Z,99.90
2019-03-06T06:25:26.682Z,99.90
2019-03-06T06:27:55.531Z,99.90
2019-03-06T06:30:24.473Z,99.90
2019-03-06T06:32:53.412Z,99.90
2019-03-06T06:35:22.553Z,99.90
2019-03-06T06:37:51.519Z,99.90
2019-03-06T06:40:20.575Z,99.90
2019-03-06T06:42:49.519Z,99.90
2019-03-06T06:45:18.556Z,99.90
2019-03-06T06:48:23.229Z,99.90
2019-03-06T06:51:18.153Z,99.90
2019-03-06T06:54:04.557Z,99.90
2019-03-06T06:57:05.364Z,99.90
2019-03-06T07:00:14.341Z,99.90
2019-03-06T07:03:33.154Z,99.90
2019-03-06T07:06:19.387Z,99.90
2019-03-06T07:08:57.755Z,99.90
2019-03-06T07:11:52.484Z,99.90
2019-03-06T07:14:34.603Z,99.90
2019-03-06T07:17:22.991Z,99.90
2019-03-06T07:20:08.804Z,99.90
2019-03-06T07:22:46.829Z,99.90
2019-03-06T07:25:34.832Z,99.90
2019-03-06T07:28:09.481Z,99.90
2019-03-06T07:30:56.388Z,99.90
2019-03-06T07:33:44.415Z,99.90
2019-03-06T07:36:47.510Z,99.90
2019-03-06T07:39:43.736Z,99.90
2019-03-06T07:42:47.072Z,99.90
2019-03-06T07:46:00.292Z,99.40
2019-03-06T07:48:57.128Z,99.10
2019-03-06T07:51:57.273Z,99.00
2019-03-06T07:54:41.046Z,98.50
2019-03-06T07:57:38.161Z,95.90
2019-03-06T08:00:19.331Z,95.10
2019-03-06T08:03:19.673Z,93.60
2019-03-06T08:05:48.516Z,94.70
2019-03-06T08:08:17.500Z,93.10
2019-03-06T08:10:46.451Z,92.90
2019-03-06T08:13:37.603Z,92.50
2019-03-06T08:16:17.657Z,89.50
2019-03-06T08:18:56.448Z,88.30
2019-03-06T08:21:44.869Z,87.70
2019-03-06T08:24:35.994Z,89.00
2019-03-06T08:27:04.986Z,88.30
2019-03-06T08:29:33.899Z,87.70
2019-03-06T08:32:11.171Z,87.80
2019-03-06T08:34:40.062Z,83.30
2019-03-06T08:37:08.833Z,81.70
2019-03-06T08:39:37.782Z,83.60
2019-03-06T08:42:06.690Z,80.00
2019-03-06T08:44:35.586Z,81.50
2019-03-06T08:47:18.650Z,86.20
2019-03-06T08:49:58.066Z,83.30
2019-03-06T08:52:44.481Z,77.90
2019-03-06T08:55:31.455Z,77.90
2019-03-06T08:58:06.926Z,76.00
2019-03-06T09:00:53.869Z,75.20
2019-03-06T09:03:57.567Z,71.90
2019-03-06T09:06:33.526Z,72.20
2019-03-06T09:09:20.146Z,72.80
2019-03-06T09:12:14.130Z,73.50
2019-03-06T09:15:05.475Z,73.60
2019-03-06T09:17:53.765Z,75.00
2019-03-06T09:20:49.370Z,70.90
2019-03-06T09:23:36.259Z,67.90
2019-03-06T09:26:24.379Z,67.30
2019-03-06T09:29:01.847Z,67.10
2019-03-06T09:31:44.941Z,66.50
2019-03-06T09:34:33.236Z,67.90
2019-03-06T09:37:36.307Z,66.60
2019-03-06T09:40:24.155Z,69.30
2019-03-06T09:43:07.467Z,62.20
2019-03-06T09:45:58.683Z,61.40
2019-03-06T09:48:45.615Z,61.20
2019-03-06T09:51:29.958Z,62.60
2019-03-06T09:54:29.777Z,62.40
2019-03-06T09:57:16.578Z,65.30
2019-03-06T10:00:16.951Z,60.80
2019-03-06T10:03:08.013Z,63.20
2019-03-06T10:05:55.938Z,60.30
2019-03-06T10:08:31.998Z,59.90
2019-03-06T10:11:10.398Z,61.00
2019-03-06T10:13:47.173Z,63.40
2019-03-06T10:16:30.302Z,59.30
2019-03-06T10:19:31.025Z,59.90
2019-03-06T10:22:00.402Z,58.80
2019-03-06T10:24:29.270Z,57.40
2019-03-06T10:26:58.218Z,56.50
2019-03-06T10:29:27.542Z,58.20
2019-03-06T10:31:56.335Z,58.20
2019-03-06T10:34:25.726Z,59.20
2019-03-06T10:36:54.658Z,57.50
2019-03-06T10:39:23.509Z,57.80
2019-03-06T10:41:52.430Z,57.20
2019-03-06T10:44:28.806Z,57.30
2019-03-06T10:46:52.118Z,59.20
2019-03-06T10:49:20.938Z,56.80
2019-03-06T10:51:49.730Z,53.30
2019-03-06T10:54:18.649Z,50.70
2019-03-06T10:56:47.682Z,50.40
2019-03-06T10:59:16.695Z,51.50
2019-03-06T11:01:45.983Z,51.30
2019-03-06T11:04:27.910Z,52.00
2019-03-06T11:06:57.102Z,53.90
2019-03-06T11:09:26.811Z,50.40
2019-03-06T11:11:55.942Z,51.40
2019-03-06T11:14:24.982Z,50.30
2019-03-06T11:16:53.830Z,50.70
2019-03-06T11:19:23.146Z,50.90
2019-03-06T11:21:52.098Z,47.90
2019-03-06T11:24:21.022Z,49.80
2019-03-06T11:26:49.996Z,48.40
2019-03-06T11:29:19.467Z,49.70
2019-03-06T11:31:48.619Z,51.10
2019-03-06T11:34:17.723Z,51.60
2019-03-06T11:36:46.648Z,51.40
2019-03-06T11:39:15.647Z,51.50
2019-03-06T11:41:44.588Z,51.50
2019-03-06T11:44:13.556Z,54.10
2019-03-06T11:46:42.790Z,52.90
2019-03-06T11:49:11.722Z,51.20
2019-03-06T11:51:40.750Z,51.50
2019-03-06T11:54:10.050Z,53.30
2019-03-06T11:56:39.024Z,53.20
2019-03-06T11:59:07.959Z,54.20
2019-03-06T12:01:36.978Z,53.30
2019-03-06T12:04:06.247Z,52.00
2019-03-06T12:06:35.158Z,50.40
2019-03-06T12:09:08.945Z,53.20
2019-03-06T12:11:37.742Z,51.60
2019-03-06T12:14:06.794Z,52.40
2019-03-06T12:16:41.863Z,52.00
2019-03-06T12:19:06.229Z,53.70
2019-03-06T12:21:35.131Z,54.30
2019-03-06T12:24:03.970Z,53.10
2019-03-06T12:26:32.897Z,53.10
2019-03-06T12:29:02.108Z,52.60
2019-03-06T12:31:31.182Z,52.20
2019-03-06T12:34:00.150Z,52.70
2019-03-06T12:36:28.936Z,53.00
2019-03-06T12:38:58.762Z,54.20
2019-03-06T12:41:27.598Z,53.50
2019-03-06T12:43:56.444Z,54.30
2019-03-06T12:46:25.886Z,54.70
2019-03-06T12:49:04.258Z,54.20
2019-03-06T12:51:34.583Z,54.10
2019-03-06T12:54:03.528Z,53.50
2019-03-06T12:56:32.290Z,53.90
2019-03-06T12:59:01.102Z,54.60
2019-03-06T13:01:30.266Z,55.00
2019-03-06T13:03:59.396Z,54.90
2019-03-06T13:06:28.295Z,54.40
2019-03-06T13:08:57.788Z,54.50
2019-03-06T13:11:26.971Z,54.10
2019-03-06T13:13:55.902Z,54.80
2019-03-06T13:16:25.467Z,56.00
2019-03-06T13:18:54.430Z,56.80
2019-03-06T13:21:24.210Z,55.50
2019-03-06T13:23:53.182Z,56.50
2019-03-06T13:26:22.030Z,56.10
2019-03-06T13:28:57.524Z,56.50
2019-03-06T13:31:22.066Z,56.90
2019-03-06T13:34:11.837Z,57.00
2019-03-06T13:36:40.754Z,56.80
2019-03-06T13:39:10.157Z,57.30
2019-03-06T13:41:39.094Z,56.90
2019-03-06T13:44:08.061Z,56.80
2019-03-06T13:46:37.095Z,57.70
2019-03-06T13:49:06.039Z,58.10
2019-03-06T13:51:35.023Z,57.40
2019-03-06T13:54:04.201Z,56.30
2019-03-06T13:56:33.142Z,58.00
2019-03-06T13:59:01.966Z,57.40
2019-03-06T14:01:31.394Z,57.90
2019-03-06T14:04:00.198Z,57.40
2019-03-06T14:06:29.085Z,57.70
2019-03-06T14:08:57.970Z,57.70
2019-03-06T14:11:26.951Z,58.00
2019-03-06T14:13:55.878Z,58.20
2019-03-06T14:16:25.203Z,57.20
2019-03-06T14:18:54.083Z,56.60
2019-03-06T14:21:23.067Z,56.80
2019-03-06T14:23:51.887Z,56.40
2019-03-06T14:26:20.898Z,55.90
2019-03-06T14:28:49.711Z,55.30
2019-03-06T14:31:18.755Z,53.50
2019-03-06T14:33:47.615Z,50.30
2019-03-06T14:36:16.575Z,49.00
2019-03-06T14:38:45.875Z,49.40
2019-03-06T14:41:14.922Z,48.70
2019-03-06T14:43:43.792Z,50.00
2019-03-06T14:46:16.433Z,50.90
2019-03-06T14:48:43.363Z,51.30
2019-03-06T14:51:13.923Z,52.40
2019-03-06T14:53:42.891Z,53.20
2019-03-06T14:56:12.014Z,53.00
2019-03-06T14:58:41.121Z,51.40
2019-03-06T15:01:10.084Z,50.30
2019-03-06T15:03:38.954Z,49.40
2019-03-06T15:06:07.903Z,51.20
2019-03-06T15:08:36.760Z,52.10
2019-03-06T15:11:05.686Z,52.10
2019-03-06T15:13:34.675Z,51.70
2019-03-06T15:16:03.604Z,53.30
2019-03-06T15:18:32.482Z,54.20
2019-03-06T15:21:01.530Z,56.30
2019-03-06T15:23:30.398Z,55.70
2019-03-06T15:25:59.291Z,56.40
2019-03-06T15:28:29.022Z,56.70
2019-03-06T15:30:57.911Z,58.60
2019-03-06T15:33:26.931Z,59.10
2019-03-06T15:35:55.874Z,59.10
2019-03-06T15:38:24.791Z,59.60
2019-03-06T15:40:53.667Z,60.20
2019-03-06T15:43:22.974Z,60.30
2019-03-06T15:45:51.939Z,61.10
2019-03-06T15:48:20.797Z,61.60
2019-03-06T15:50:49.728Z,61.00
2019-03-06T15:53:24.517Z,62.50
2019-03-06T15:55:49.299Z,63.00
2019-03-06T15:58:18.145Z,64.50
2019-03-06T16:00:48.357Z,64.20
2019-03-06T16:03:17.279Z,63.30
2019-03-06T16:05:46.322Z,64.60
2019-03-06T16:08:15.237Z,64.40
2019-03-06T16:10:44.586Z,65.40
2019-03-06T16:13:13.522Z,66.20
2019-03-06T16:15:42.663Z,65.40
2019-03-06T16:18:11.714Z,65.80
2019-03-06T16:20:41.107Z,67.20
2019-03-06T16:23:10.042Z,66.20
2019-03-06T16:25:40.249Z,67.50
2019-03-06T16:28:09.436Z,67.20
2019-03-06T16:30:39.070Z,68.10
2019-03-06T16:33:08.050Z,69.70
2019-03-06T16:35:37.001Z,68.90
2019-03-06T16:38:06.079Z,69.60
2019-03-06T16:40:35.081Z,69.80
2019-03-06T16:43:03.996Z,70.40
2019-03-06T16:45:32.990Z,71.60
2019-03-06T16:48:01.929Z,71.20
2019-03-06T16:50:30.878Z,72.30
2019-03-06T16:52:59.738Z,72.70
2019-03-06T16:55:28.701Z,73.60
2019-03-06T16:57:58.050Z,73.80
2019-03-06T17:00:31.562Z,74.20
2019-03-06T17:03:01.116Z,74.50
2019-03-06T17:05:30.583Z,75.20
2019-03-06T17:08:00.210Z,75.20
2019-03-06T17:10:29.246Z,74.80
2019-03-06T17:12:58.846Z,74.00
2019-03-06T17:15:28.743Z,74.60
2019-03-06T17:17:57.735Z,74.80
2019-03-06T17:20:27.751Z,74.50
2019-03-06T17:22:57.312Z,76.20
2019-03-06T17:25:28.258Z,76.20
2019-03-06T17:27:57.318Z,76.10
2019-03-06T17:30:26.848Z,76.70
2019-03-06T17:33:14.401Z,77.10
2019-03-06T17:35:43.498Z,78.20
2019-03-06T17:38:12.764Z,78.20
2019-03-06T17:40:41.714Z,79.00
2019-03-06T17:43:10.682Z,79.20
2019-03-06T17:45:39.745Z,79.80
2019-03-06T17:48:09.200Z,79.50
2019-03-06T17:50:38.178Z,80.80
2019-03-06T17:53:07.342Z,81.90
2019-03-06T17:55:36.350Z,81.90
2019-03-06T17:58:05.441Z,83.00
2019-03-06T18:00:47.320Z,82.10
2019-03-06T18:03:20.864Z,81.90
2019-03-06T18:05:50.942Z,82.40
2019-03-06T18:08:20.196Z,81.80
2019-03-06T18:10:49.228Z,83.10
2019-03-06T18:13:18.150Z,83.10
2019-03-06T18:15:47.172Z,83.20
2019-03-06T18:18:16.071Z,84.20
2019-03-06T18:20:45.108Z,84.30
2019-03-06T18:23:14.110Z,84.00
2019-03-06T18:25:43.022Z,84.20
2019-03-06T18:28:12.010Z,84.60
2019-03-06T18:30:41.846Z,85.10
2019-03-06T18:33:10.859Z,85.40
2019-03-06T18:35:39.866Z,86.40
2019-03-06T18:38:08.791Z,87.30
2019-03-06T18:40:37.795Z,87.20
2019-03-06T18:43:06.991Z,87.70
2019-03-06T18:45:36.113Z,87.90
2019-03-06T18:48:05.683Z,88.20
2019-03-06T18:50:34.534Z,88.30
2019-03-06T18:53:03.475Z,88.80
2019-03-06T18:55:32.465Z,89.30
2019-03-06T18:58:01.709Z,90.00
2019-03-06T19:00:30.823Z,90.20
2019-03-06T19:02:59.870Z,90.30
2019-03-06T19:05:28.866Z,90.40
2019-03-06T19:07:57.813Z,90.50
2019-03-06T19:10:26.941Z,90.80
2019-03-06T19:12:56.066Z,90.90
2019-03-06T19:15:25.038Z,91.00
2019-03-06T19:17:54.020Z,90.90
2019-03-06T19:20:23.845Z,91.00
2019-03-06T19:22:53.458Z,91.30
2019-03-06T19:25:22.559Z,91.70
2019-03-06T19:27:51.587Z,92.00
2019-03-06T19:30:21.478Z,92.00
2019-03-06T19:32:50.554Z,92.10
2019-03-06T19:35:20.111Z,92.20
2019-03-06T19:37:49.083Z,92.40
2019-03-06T19:40:18.690Z,92.60
2019-03-06T19:42:47.941Z,92.70
2019-03-06T19:45:18.182Z,92.80
2019-03-06T19:47:47.630Z,92.90
2019-03-06T19:50:18.534Z,93.10
2019-03-06T19:52:47.463Z,93.30
2019-03-06T19:55:17.787Z,93.40
2019-03-06T19:57:54.583Z,94.10
2019-03-06T20:00:24.285Z,94.00
2019-03-06T20:02:53.405Z,94.20
2019-03-06T20:05:22.946Z,94.40
2019-03-06T20:07:51.886Z,94.50
2019-03-06T20:10:21.423Z,94.60
2019-03-06T20:12:50.366Z,94.60
2019-03-06T20:15:19.828Z,94.80
2019-03-06T20:17:48.879Z,94.90
2019-03-06T20:20:18.237Z,95.00
2019-03-06T20:22:47.507Z,95.10
2019-03-06T20:25:18.154Z,95.20
2019-03-06T20:27:47.244Z,95.50
2019-03-06T20:30:17.406Z,95.30
2019-03-06T20:32:47.325Z,95.30
2019-03-06T20:35:20.143Z,95.10
2019-03-06T20:37:49.317Z,95.10
2019-03-06T20:40:18.995Z,95.20
2019-03-06T20:42:47.983Z,95.20
2019-03-06T20:45:17.430Z,95.40
2019-03-06T20:47:46.734Z,95.30
2019-03-06T20:50:15.702Z,95.40
2019-03-06T20:52:44.751Z,95.50
2019-03-06T20:55:15.347Z,95.60
2019-03-06T20:57:44.591Z,95.70
2019-03-06T21:00:15.697Z,95.70
2019-03-06T21:02:45.043Z,95.60
2019-03-06T21:05:14.121Z,95.70
2019-03-06T21:07:45.192Z,95.60
2019-03-06T21:10:15.365Z,95.70
2019-03-06T21:12:44.442Z,95.80
2019-03-06T21:15:15.393Z,96.00
2019-03-06T21:17:44.664Z,95.80
2019-03-06T21:20:15.214Z,95.80
2019-03-06T21:22:44.156Z,95.70
2019-03-06T21:25:14.529Z,95.70
2019-03-06T21:27:43.394Z,96.10
2019-03-06T21:30:15.527Z,95.40
2019-03-06T21:32:44.414Z,95.60
2019-03-06T21:35:13.310Z,95.50
2019-03-06T21:37:42.273Z,95.50
2019-03-06T21:40:11.261Z,95.50
2019-03-06T21:42:40.214Z,95.50
2019-03-06T21:45:09.595Z,95.50
2019-03-06T21:47:38.580Z,95.60
2019-03-06T21:50:09.744Z,95.60
2019-03-06T21:52:38.562Z,95.60
2019-03-06T21:55:09.387Z,95.70
2019-03-06T21:57:38.859Z,95.50
2019-03-06T22:00:11.503Z,95.10
2019-03-06T22:02:40.491Z,95.00
2019-03-06T22:05:09.722Z,94.50
2019-03-06T22:07:38.585Z,94.70
2019-03-06T22:10:08.257Z,95.00
2019-03-06T22:12:37.582Z,95.10
2019-03-06T22:15:10.454Z,94.90
2019-03-06T22:17:40.234Z,94.90
2019-03-06T22:20:09.843Z,95.00
2019-03-06T22:22:38.726Z,95.10
2019-03-06T22:25:08.339Z,94.80
2019-03-06T22:27:37.193Z,94.70
2019-03-06T22:30:07.482Z,94.50
2019-03-06T22:32:36.401Z,94.40
2019-03-06T22:35:05.431Z,94.30
2019-03-06T22:37:34.234Z,94.30
2019-03-06T22:40:03.098Z,94.20
2019-03-06T22:42:32.227Z,94.20
2019-03-06T22:45:01.319Z,94.50
2019-03-06T22:47:30.498Z,94.70
2019-03-06T22:49:59.856Z,95.50
2019-03-06T22:52:29.185Z,95.10
2019-03-06T22:54:57.973Z,94.80
2019-03-06T22:57:26.930Z,94.80
2019-03-06T22:59:55.731Z,95.00
2019-03-06T23:02:25.147Z,95.10
2019-03-06T23:04:54.030Z,95.20
2019-03-06T23:07:23.023Z,95.10
2019-03-06T23:09:51.830Z,95.30
2019-03-06T23:12:20.726Z,94.80
2019-03-06T23:14:49.580Z,94.70
2019-03-06T23:17:19.719Z,94.90
2019-03-06T23:19:48.823Z,95.00
2019-03-06T23:22:17.648Z,95.00
2019-03-06T23:24:48.737Z,95.10
2019-03-06T23:27:17.329Z,95.20
2019-03-06T23:29:46.172Z,95.40
2019-03-06T23:32:14.991Z,95.50
2019-03-06T23:34:43.779Z,95.60
2019-03-06T23:37:12.586Z,95.50
2019-03-06T23:39:41.747Z,95.30
2019-03-06T23:42:10.738Z,95.20
2019-03-06T23:44:39.594Z,95.20
2019-03-06T23:47:08.459Z,95.00
2019-03-06T23:49:37.556Z,95.10
2019-03-06T23:52:23.258Z,95.10
2019-03-06T23:54:52.418Z,95.40
2019-03-06T23:57:21.496Z,95.50
2019-03-06T23:59:50.402Z,95.40
